Time;durP1;ratioP1;P1;durP2;ratioP2;P2;SDS_P1;SDS_P2;PMS_P1;PMS_P2;Temp;Humidity;BMP_temperature;BMP_pressure;BME280_temperature;BME280_humidity;BME280_pressure;Samples;Min_cycle;Max_cycle;Signal;HPM_P1;HPM_P2
2021/12/18 00:00:51;;;;;;;6.38;3.40;;;9.10;99.90;;;;;;5031136;28;20224;-70
2021/12/18 00:03:18;;;;;;;5.95;3.55;;;9.10;99.90;;;;;;5029592;28;20196;-70
2021/12/18 00:05:45;;;;;;;5.22;3.40;;;9.10;99.90;;;;;;5032428;28;20291;-70
2021/12/18 00:08:14;;;;;;;5.25;3.40;;;9.10;99.90;;;;;;5029833;28;20247;-72
2021/12/18 00:10:45;;;;;;;8.02;4.00;;;9.20;99.90;;;;;;5025636;28;20234;-71
2021/12/18 00:13:13;;;;;;;6.82;4.07;;;9.10;99.90;;;;;;5033567;28;20569;-68
2021/12/18 00:15:40;;;;;;;4.53;2.92;;;9.10;99.90;;;;;;5033799;28;20294;-69
2021/12/18 00:18:07;;;;;;;8.20;3.90;;;9.10;99.90;;;;;;5033189;28;20196;-70
2021/12/18 00:20:36;;;;;;;6.80;3.08;;;9.10;99.90;;;;;;5032591;28;20317;-69
2021/12/18 00:23:04;;;;;;;8.55;3.15;;;9.10;99.90;;;;;;5033851;28;20210;-70
2021/12/18 00:25:31;;;;;;;3.53;2.58;;;9.10;99.90;;;;;;5033015;28;20199;-70
2021/12/18 00:27:59;;;;;;;7.82;2.83;;;9.10;99.90;;;;;;5034050;28;20206;-69
2021/12/18 00:30:27;;;;;;;5.80;3.67;;;9.10;99.90;;;;;;5032319;28;20234;-71
2021/12/18 00:32:54;;;;;;;7.43;3.20;;;9.10;99.90;;;;;;5033068;28;20305;-70
2021/12/18 00:35:21;;;;;;;3.95;2.63;;;9.20;99.90;;;;;;5032510;28;20283;-71
2021/12/18 00:37:48;;;;;;;4.57;3.13;;;9.10;99.90;;;;;;5033284;28;20272;-71
2021/12/18 00:40:21;;;;;;;4.85;3.63;;;9.10;99.90;;;;;;5032405;28;20317;-70
2021/12/18 00:42:51;;;;;;;5.30;2.95;;;9.10;99.90;;;;;;5031545;28;20315;-70
2021/12/18 00:45:21;;;;;;;6.70;4.28;;;9.10;99.90;;;;;;5032962;28;20227;-71
2021/12/18 00:47:48;;;;;;;4.93;4.22;;;9.10;99.90;;;;;;5027093;28;20287;-71
2021/12/18 00:50:18;;;;;;;6.30;4.38;;;9.10;99.90;;;;;;5032351;28;20330;-70
2021/12/18 00:52:46;;;;;;;8.20;4.82;;;9.10;99.90;;;;;;5031240;28;20258;-70
2021/12/18 00:55:13;;;;;;;7.75;3.70;;;9.00;99.90;;;;;;5032721;28;20211;-70
2021/12/18 00:57:41;;;;;;;7.43;4.32;;;9.00;99.90;;;;;;5033698;28;20255;-70
2021/12/18 01:00:11;;;;;;;8.35;5.20;;;9.00;99.90;;;;;;5021709;28;20343;-70
2021/12/18 01:02:43;;;;;;;9.38;5.72;;;8.90;99.90;;;;;;5034034;28;20227;-70
2021/12/18 01:05:11;;;;;;;9.50;4.72;;;9.00;99.90;;;;;;5026513;28;20192;-70
2021/12/18 01:07:39;;;;;;;8.38;3.53;;;8.90;99.90;;;;;;5032569;28;20196;-70
2021/12/18 01:10:21;;;;;;;5.85;3.53;;;8.90;99.90;;;;;;5031322;28;20631;-69
2021/12/18 01:12:51;;;;;;;5.18;3.70;;;8.90;99.90;;;;;;5026257;28;20200;-70
2021/12/18 01:15:24;;;;;;;4.97;2.88;;;8.90;99.90;;;;;;5031935;28;20197;-70
2021/12/18 01:23:23;;;;;;;3.28;2.75;;;8.90;99.90;;;;;;5032295;28;20210;-70
2021/12/18 01:25:53;;;;;;;6.30;4.93;;;8.90;99.90;;;;;;5027919;28;20200;-70
2021/12/18 01:28:20;;;;;;;6.10;3.03;;;8.90;99.90;;;;;;5029894;28;20212;-71
2021/12/18 01:30:51;;;;;;;4.75;3.10;;;8.90;99.90;;;;;;5025377;28;20310;-71
2021/12/18 01:33:20;;;;;;;5.88;3.10;;;8.90;99.90;;;;;;5032790;28;20196;-70
2021/12/18 01:35:47;;;;;;;3.83;2.58;;;8.90;99.90;;;;;;5031775;28;20299;-69
2021/12/18 01:38:14;;;;;;;8.73;4.40;;;9.00;99.90;;;;;;5031446;28;20201;-69
2021/12/18 01:40:42;;;;;;;5.13;4.03;;;9.00;99.90;;;;;;5031394;28;20219;-68
2021/12/18 01:43:57;;;;;;;4.18;3.15;;;9.10;99.90;;;;;;5032225;28;20203;-70
2021/12/18 01:46:17;;;;;;;8.52;4.68;;;9.10;99.90;;;;;;5029241;28;20203;-69
2021/12/18 01:51:47;;;;;;;11.20;8.15;;;9.00;99.90;;;;;;5029940;28;20624;-70
2021/12/18 01:54:15;;;;;;;13.18;7.50;;;9.10;99.90;;;;;;5029893;28;20632;-70
2021/12/18 01:56:43;;;;;;;15.95;9.20;;;9.00;99.90;;;;;;5025087;28;20258;-70
2021/12/18 01:59:10;;;;;;;8.98;6.30;;;8.90;99.90;;;;;;5032049;28;20204;-68
2021/12/18 02:01:37;;;;;;;10.50;7.00;;;9.00;99.90;;;;;;5030955;28;20311;-71
2021/12/18 02:04:05;;;;;;;7.97;5.80;;;8.90;99.90;;;;;;5031698;28;20193;-69
2021/12/18 02:06:32;;;;;;;6.90;5.10;;;9.00;99.90;;;;;;5031709;28;20287;-69
2021/12/18 02:08:59;;;;;;;10.85;5.43;;;9.00;99.90;;;;;;5031462;28;20200;-69
2021/12/18 02:11:32;;;;;;;9.35;5.75;;;9.00;99.90;;;;;;5031667;28;20319;-70
2021/12/18 02:14:23;;;;;;;10.43;6.57;;;9.00;99.90;;;;;;5030348;28;20582;-70
2021/12/18 02:22:13;;;;;;;13.27;6.88;;;9.00;99.90;;;;;;5027859;28;20210;-69
2021/12/18 02:24:40;;;;;;;6.90;5.47;;;9.00;99.90;;;;;;5031791;28;20200;-69
2021/12/18 02:27:07;;;;;;;9.13;5.57;;;9.00;99.90;;;;;;5032117;28;20254;-70
2021/12/18 02:29:36;;;;;;;9.45;6.07;;;9.00;99.90;;;;;;5031311;28;20204;-70
2021/12/18 02:32:05;;;;;;;6.43;5.15;;;9.00;99.90;;;;;;5032453;28;20232;-69
2021/12/18 02:34:33;;;;;;;7.57;4.55;;;9.00;99.90;;;;;;5032214;28;20679;-69
2021/12/18 02:37:05;;;;;;;11.38;5.15;;;9.00;99.90;;;;;;5031840;28;20571;-71
2021/12/18 02:39:44;;;;;;;12.05;6.18;;;9.00;99.90;;;;;;5030262;28;20259;-70
2021/12/18 02:42:17;;;;;;;9.77;5.45;;;9.00;99.90;;;;;;5032064;28;20594;-70
2021/12/18 02:44:45;;;;;;;9.00;6.05;;;9.00;99.90;;;;;;5031003;28;20204;-70
2021/12/18 02:47:12;;;;;;;12.60;6.25;;;9.00;99.90;;;;;;5033036;28;20274;-70
2021/12/18 02:49:44;;;;;;;11.40;6.93;;;9.10;99.90;;;;;;5035404;28;20200;-70
2021/12/18 02:52:11;;;;;;;9.52;5.95;;;9.00;99.90;;;;;;5036243;28;20586;-69
2021/12/18 02:54:40;;;;;;;8.63;6.50;;;8.90;99.90;;;;;;5029914;28;20291;-70
2021/12/18 02:57:07;;;;;;;13.40;7.95;;;8.90;99.90;;;;;;5035919;28;20204;-69
2021/12/18 02:59:43;;;;;;;12.25;7.60;;;9.00;99.90;;;;;;5028029;28;20197;-70
2021/12/18 03:02:10;;;;;;;10.32;6.93;;;9.00;99.90;;;;;;5035375;28;20571;-70
2021/12/18 03:04:38;;;;;;;11.45;7.40;;;8.90;99.90;;;;;;5035758;28;20212;-70
2021/12/18 03:07:07;;;;;;;9.95;6.45;;;9.00;99.90;;;;;;5035803;28;20212;-71
2021/12/18 03:23:36;;;;;;;17.70;6.82;;;8.80;99.90;;;;;;5030887;28;20185;-69
2021/12/18 03:26:03;;;;;;;15.98;6.85;;;8.80;99.90;;;;;;5033314;28;20199;-69
2021/12/18 03:28:32;;;;;;;13.93;5.50;;;8.80;99.90;;;;;;5035114;28;20204;-69
2021/12/18 03:30:59;;;;;;;10.10;4.85;;;8.90;99.90;;;;;;5030911;28;20219;-69
2021/12/18 03:33:27;;;;;;;9.90;4.25;;;8.90;99.90;;;;;;5034989;28;20199;-69
2021/12/18 03:35:54;;;;;;;9.27;4.53;;;8.90;99.90;;;;;;5034822;28;20206;-70
2021/12/18 03:38:21;;;;;;;14.20;5.40;;;8.80;99.90;;;;;;5031866;28;20196;-70
2021/12/18 03:40:48;;;;;;;9.68;4.75;;;8.80;99.90;;;;;;5033909;28;20238;-70
2021/12/18 03:43:15;;;;;;;9.52;5.40;;;8.80;99.90;;;;;;5034766;28;20673;-70
2021/12/18 03:45:44;;;;;;;8.25;4.18;;;8.80;99.90;;;;;;5034927;28;20200;-69
2021/12/18 03:48:11;;;;;;;9.93;3.90;;;8.80;99.90;;;;;;5034656;28;20200;-68
2021/12/18 03:50:38;;;;;;;8.93;4.35;;;8.80;99.90;;;;;;5033928;28;20220;-69
2021/12/18 03:53:05;;;;;;;12.30;5.47;;;8.80;99.90;;;;;;5035128;28;20232;-70
2021/12/18 03:55:34;;;;;;;12.38;4.10;;;8.80;99.90;;;;;;5034785;28;20243;-69
2021/12/18 03:58:01;;;;;;;11.60;4.78;;;8.80;99.90;;;;;;5034895;28;20650;-70
2021/12/18 04:00:28;;;;;;;9.77;4.88;;;8.80;99.90;;;;;;5033175;28;20315;-69
2021/12/18 04:02:56;;;;;;;8.20;4.82;;;8.80;99.90;;;;;;5034511;28;20283;-69
2021/12/18 04:05:23;;;;;;;8.77;4.43;;;8.80;99.90;;;;;;5034313;28;20208;-71
2021/12/18 04:07:51;;;;;;;9.35;5.00;;;8.70;99.90;;;;;;5034184;28;20206;-69
2021/12/18 04:10:20;;;;;;;8.90;4.20;;;8.80;99.90;;;;;;5033184;28;20636;-70
2021/12/18 04:12:49;;;;;;;11.88;5.03;;;8.80;99.90;;;;;;5034345;28;20307;-69
2021/12/18 04:15:16;;;;;;;9.13;4.95;;;8.80;99.90;;;;;;5030291;28;20254;-70
2021/12/18 04:17:43;;;;;;;11.95;4.82;;;8.80;99.90;;;;;;5032796;28;20205;-69
2021/12/18 04:20:12;;;;;;;15.60;5.70;;;8.80;99.90;;;;;;5032809;28;20222;-69
2021/12/18 04:22:39;;;;;;;13.88;5.00;;;8.70;99.90;;;;;;5034239;28;20612;-69
2021/12/18 04:25:07;;;;;;;12.98;5.60;;;8.70;99.90;;;;;;5034693;28;20228;-68
2021/12/18 04:27:34;;;;;;;12.40;6.05;;;8.60;99.90;;;;;;5033821;28;20243;-69
2021/12/18 04:30:01;;;;;;;12.23;5.05;;;8.60;99.90;;;;;;5032937;28;20201;-70
2021/12/18 04:32:28;;;;;;;18.98;5.93;;;8.60;99.90;;;;;;5034730;28;20304;-69
2021/12/18 04:34:55;;;;;;;15.10;6.93;;;8.70;99.90;;;;;;5034685;28;20204;-70
2021/12/18 04:37:23;;;;;;;17.88;7.93;;;8.70;99.90;;;;;;5034076;28;20293;-70
2021/12/18 04:39:50;;;;;;;20.17;8.07;;;8.70;99.90;;;;;;5033138;28;20204;-70
2021/12/18 04:42:17;;;;;;;16.38;7.72;;;8.70;99.90;;;;;;5033743;28;20288;-70
2021/12/18 04:44:44;;;;;;;12.40;5.70;;;8.70;99.90;;;;;;5033734;28;20275;-70
2021/12/18 04:47:11;;;;;;;17.13;7.20;;;8.70;99.90;;;;;;5033413;28;20204;-71
2021/12/18 04:49:38;;;;;;;10.88;6.60;;;8.70;99.90;;;;;;5033114;28;20283;-70
2021/12/18 04:52:05;;;;;;;11.70;5.88;;;8.70;99.90;;;;;;5033301;28;20228;-70
2021/12/18 04:54:33;;;;;;;9.57;6.03;;;8.70;99.90;;;;;;5033164;28;20219;-69
2021/12/18 04:57:01;;;;;;;15.20;6.68;;;8.70;99.90;;;;;;5033169;28;20678;-68
2021/12/18 04:59:28;;;;;;;9.15;5.55;;;8.60;99.90;;;;;;5032673;28;20655;-71
2021/12/18 05:01:55;;;;;;;7.85;4.70;;;8.60;99.90;;;;;;5033055;28;20306;-71
2021/12/18 05:04:22;;;;;;;9.73;5.63;;;8.70;99.90;;;;;;5033535;28;20196;-71
2021/12/18 05:06:52;;;;;;;8.32;5.22;;;8.70;99.90;;;;;;5033440;28;20208;-70
2021/12/18 05:09:18;;;;;;;9.13;5.10;;;8.70;99.90;;;;;;5033219;28;20270;-68
2021/12/18 05:11:48;;;;;;;9.05;5.28;;;8.70;99.90;;;;;;5029124;28;20225;-71
2021/12/18 05:14:15;;;;;;;8.25;4.95;;;8.70;99.90;;;;;;5029958;28;20287;-70
2021/12/18 05:16:42;;;;;;;10.63;5.05;;;8.60;99.90;;;;;;5033086;28;20224;-70
2021/12/18 05:19:09;;;;;;;11.43;4.22;;;8.60;99.90;;;;;;5033447;28;20193;-70
2021/12/18 05:21:36;;;;;;;9.90;6.18;;;8.60;99.90;;;;;;5032416;28;20354;-69
2021/12/18 05:24:04;;;;;;;8.10;3.65;;;8.60;99.90;;;;;;5033149;28;20204;-69
2021/12/18 05:26:31;;;;;;;12.40;5.38;;;8.70;99.90;;;;;;5033084;28;20603;-70
2021/12/18 05:28:59;;;;;;;9.65;4.15;;;8.60;99.90;;;;;;5033118;28;20299;-69
2021/12/18 05:31:26;;;;;;;11.02;6.07;;;8.60;99.90;;;;;;5032074;28;20600;-69
2021/12/18 05:33:58;;;;;;;13.95;5.32;;;8.70;99.90;;;;;;5033224;28;20214;-69
2021/12/18 05:36:32;;;;;;;12.80;4.70;;;8.70;99.90;;;;;;5032682;28;20214;-69
2021/12/18 05:39:01;;;;;;;14.02;5.57;;;8.60;99.90;;;;;;5032613;28;20235;-68
2021/12/18 05:41:29;;;;;;;12.75;5.03;;;8.70;99.90;;;;;;5031855;28;20228;-69
2021/12/18 05:43:56;;;;;;;12.82;5.00;;;8.60;99.90;;;;;;5033022;28;20196;-69
2021/12/18 05:46:24;;;;;;;12.77;5.82;;;8.50;99.90;;;;;;5031995;28;20204;-69
2021/12/18 05:48:51;;;;;;;11.25;4.65;;;8.50;99.90;;;;;;5028611;28;20211;-67
2021/12/18 05:51:18;;;;;;;13.63;5.75;;;8.50;99.90;;;;;;5028859;28;20330;-70
2021/12/18 05:53:45;;;;;;;16.88;5.93;;;8.50;99.90;;;;;;5026508;28;20227;-72
2021/12/18 05:56:13;;;;;;;15.60;5.38;;;8.50;99.90;;;;;;5032492;28;20250;-69
2021/12/18 05:58:43;;;;;;;16.10;6.90;;;8.50;99.90;;;;;;5032799;28;20287;-68
2021/12/18 06:01:12;;;;;;;21.92;7.47;;;8.50;99.90;;;;;;5023727;28;20220;-72
2021/12/18 06:03:41;;;;;;;13.02;5.18;;;8.50;99.90;;;;;;5026711;28;20677;-71
2021/12/18 06:06:08;;;;;;;13.40;6.63;;;8.50;99.90;;;;;;5031415;28;20243;-70
2021/12/18 06:08:36;;;;;;;12.20;5.50;;;8.50;99.90;;;;;;5031022;28;20291;-71
2021/12/18 06:11:08;;;;;;;20.55;7.18;;;8.50;99.90;;;;;;5029645;28;20604;-68
2021/12/18 06:13:36;;;;;;;12.35;6.40;;;8.50;99.90;;;;;;5027866;28;20221;-70
2021/12/18 06:16:05;;;;;;;17.83;6.60;;;8.50;99.90;;;;;;5032203;28;20211;-71
2021/12/18 06:18:45;;;;;;;14.90;5.53;;;8.50;99.90;;;;;;5028053;28;20702;-72
2021/12/18 06:21:13;;;;;;;17.92;7.90;;;8.50;99.90;;;;;;5027884;28;20238;-71
2021/12/18 06:23:41;;;;;;;13.10;6.00;;;8.60;99.90;;;;;;5033497;28;20196;-70
2021/12/18 06:26:08;;;;;;;15.82;6.20;;;8.60;99.90;;;;;;5032644;28;20196;-72
2021/12/18 06:28:35;;;;;;;18.58;7.13;;;8.60;99.90;;;;;;5035089;28;20207;-71
2021/12/18 06:31:03;;;;;;;16.73;5.72;;;8.50;99.90;;;;;;5035160;28;20230;-70
2021/12/18 06:33:30;;;;;;;10.63;5.90;;;8.60;99.90;;;;;;5036071;28;20347;-71
2021/12/18 06:35:59;;;;;;;12.45;4.90;;;8.50;99.90;;;;;;5034784;28;20294;-71
2021/12/18 06:38:27;;;;;;;14.63;5.78;;;8.50;99.90;;;;;;5035653;28;20204;-70
2021/12/18 06:40:53;;;;;;;14.10;5.93;;;8.50;99.90;;;;;;5034938;28;20330;-72
2021/12/18 06:43:20;;;;;;;16.55;5.78;;;8.50;99.90;;;;;;5025678;28;20288;-71
2021/12/18 06:45:47;;;;;;;16.40;5.95;;;8.60;99.90;;;;;;5035807;28;20202;-71
2021/12/18 06:48:15;;;;;;;13.85;5.63;;;8.50;99.90;;;;;;5035418;28;20204;-71
2021/12/18 06:50:42;;;;;;;15.98;6.35;;;8.50;99.90;;;;;;5026654;28;20231;-71
2021/12/18 06:53:10;;;;;;;15.65;5.82;;;8.50;99.90;;;;;;5035364;28;20252;-70
2021/12/18 06:55:37;;;;;;;17.40;7.75;;;8.50;99.90;;;;;;5036359;28;20274;-70
2021/12/18 06:58:05;;;;;;;16.70;6.07;;;8.40;99.90;;;;;;5035926;28;20280;-71
2021/12/18 07:00:32;;;;;;;14.88;6.13;;;8.40;99.90;;;;;;5035204;28;20298;-72
2021/12/18 07:02:59;;;;;;;13.25;5.47;;;8.40;99.90;;;;;;5035676;28;20203;-71
2021/12/18 07:05:26;;;;;;;12.38;5.72;;;8.50;99.90;;;;;;5034999;28;20208;-70
2021/12/18 07:07:53;;;;;;;15.38;6.90;;;8.50;99.90;;;;;;5035342;28;20203;-71
2021/12/18 07:10:22;;;;;;;12.15;5.78;;;8.50;99.90;;;;;;5034351;28;20220;-71
2021/12/18 07:12:49;;;;;;;18.08;8.05;;;8.60;99.90;;;;;;5035826;28;20215;-71
2021/12/18 07:15:16;;;;;;;17.63;6.18;;;8.60;99.90;;;;;;5035933;28;20563;-71
2021/12/18 07:17:43;;;;;;;15.35;7.80;;;8.60;99.90;;;;;;5035451;28;20722;-72
2021/12/18 07:20:11;;;;;;;16.98;8.15;;;8.70;99.90;;;;;;5034290;28;20319;-71
2021/12/18 07:22:38;;;;;;;12.45;5.95;;;8.70;99.90;;;;;;5027606;28;20279;-71
2021/12/18 07:25:08;;;;;;;11.95;5.90;;;8.80;99.90;;;;;;5035501;28;20228;-71
2021/12/18 07:27:36;;;;;;;11.35;6.53;;;9.00;99.90;;;;;;5035524;28;20550;-71
2021/12/18 07:30:05;;;;;;;16.08;6.05;;;9.00;99.90;;;;;;5034686;28;20213;-70
2021/12/18 07:32:31;;;;;;;16.13;6.82;;;9.10;99.90;;;;;;5034203;28;20238;-70
2021/12/18 07:34:59;;;;;;;13.98;6.70;;;9.00;99.90;;;;;;5030298;28;20306;-71
2021/12/18 07:37:26;;;;;;;14.18;6.30;;;9.00;99.90;;;;;;5035089;28;20291;-71
2021/12/18 07:39:54;;;;;;;15.68;5.95;;;8.90;99.90;;;;;;5034065;28;20295;-71
2021/12/18 07:42:22;;;;;;;21.40;6.82;;;8.90;99.90;;;;;;5034846;28;20631;-70
2021/12/18 07:44:52;;;;;;;14.50;7.70;;;8.80;99.90;;;;;;5034794;28;20212;-69
2021/12/18 07:47:19;;;;;;;14.30;7.28;;;8.80;99.90;;;;;;5034711;28;20212;-69
2021/12/18 07:49:47;;;;;;;14.20;6.80;;;8.80;99.90;;;;;;5033960;28;20533;-70
2021/12/18 07:52:14;;;;;;;12.32;6.20;;;8.90;99.90;;;;;;5034772;28;20218;-70
2021/12/18 07:54:41;;;;;;;18.98;8.35;;;8.90;99.90;;;;;;5034562;28;20196;-71
2021/12/18 07:57:08;;;;;;;18.80;8.38;;;8.90;99.90;;;;;;5034793;28;20227;-71
2021/12/18 07:59:35;;;;;;;30.92;10.10;;;8.80;99.90;;;;;;5033893;28;20283;-69
2021/12/18 08:02:05;;;;;;;23.30;9.05;;;8.80;99.90;;;;;;5034375;28;20234;-69
2021/12/18 08:04:32;;;;;;;29.10;9.32;;;8.90;99.90;;;;;;5034378;28;20212;-70
2021/12/18 08:06:59;;;;;;;22.40;9.75;;;8.90;99.90;;;;;;5034470;28;20315;-71
2021/12/18 08:09:26;;;;;;;22.33;7.65;;;8.90;99.90;;;;;;5034144;28;20295;-72
2021/12/18 08:11:53;;;;;;;17.45;8.27;;;9.00;99.90;;;;;;5033823;28;20282;-69
2021/12/18 08:14:20;;;;;;;22.52;10.20;;;9.00;99.90;;;;;;5034241;28;20224;-70
2021/12/18 08:16:48;;;;;;;19.98;9.30;;;9.00;99.90;;;;;;5033854;28;20632;-70
2021/12/18 08:19:16;;;;;;;31.77;8.50;;;9.00;99.90;;;;;;5033938;28;20220;-70
2021/12/18 08:21:43;;;;;;;21.55;9.10;;;9.00;99.90;;;;;;5030755;28;20308;-70
2021/12/18 08:24:10;;;;;;;16.83;8.45;;;9.00;99.90;;;;;;5034119;28;20279;-70
2021/12/18 08:26:38;;;;;;;16.23;7.68;;;9.00;99.90;;;;;;5034346;28;20283;-71
2021/12/18 08:29:05;;;;;;;18.90;8.88;;;9.00;99.90;;;;;;5029697;28;20200;-70
2021/12/18 08:31:32;;;;;;;21.60;9.27;;;9.00;99.90;;;;;;5032694;28;20220;-71
2021/12/18 08:33:59;;;;;;;22.52;8.50;;;9.00;99.90;;;;;;5034086;28;20266;-70
2021/12/18 08:36:28;;;;;;;19.33;8.57;;;9.00;99.90;;;;;;5033936;28;20242;-69
2021/12/18 08:38:55;;;;;;;21.27;8.48;;;9.00;99.90;;;;;;5033675;28;20200;-69
2021/12/18 08:41:22;;;;;;;22.67;9.98;;;9.10;99.90;;;;;;5032526;28;20307;-69
2021/12/18 08:43:49;;;;;;;24.52;10.95;;;9.10;99.90;;;;;;5034493;28;20208;-68
2021/12/18 08:46:17;;;;;;;22.33;10.32;;;9.10;99.90;;;;;;5034223;28;20331;-68
2021/12/18 08:48:44;;;;;;;43.08;12.90;;;9.10;99.90;;;;;;5035030;28;20208;-71
2021/12/18 08:51:11;;;;;;;22.55;10.60;;;9.10;99.90;;;;;;5023294;28;20312;-71
2021/12/18 08:53:39;;;;;;;21.33;10.15;;;9.10;99.90;;;;;;5032673;28;20306;-71
2021/12/18 08:56:06;;;;;;;16.95;9.60;;;9.10;99.90;;;;;;5028788;28;20227;-71
2021/12/18 08:58:33;;;;;;;19.55;9.65;;;9.10;99.90;;;;;;5032990;28;20286;-69
2021/12/18 09:01:01;;;;;;;18.15;8.73;;;9.20;99.90;;;;;;5030962;28;20307;-70
2021/12/18 09:03:28;;;;;;;15.70;8.50;;;9.20;99.90;;;;;;5033258;28;20707;-71
2021/12/18 09:05:55;;;;;;;20.90;10.10;;;9.20;99.90;;;;;;5033356;28;20232;-70
2021/12/18 09:08:22;;;;;;;16.73;9.20;;;9.20;99.90;;;;;;5026930;28;20218;-71
2021/12/18 09:10:51;;;;;;;21.73;11.07;;;9.20;99.90;;;;;;5032319;28;20224;-70
2021/12/18 09:13:18;;;;;;;16.70;9.15;;;9.30;99.90;;;;;;5032752;28;20224;-70
2021/12/18 09:15:45;;;;;;;22.65;10.95;;;9.30;99.90;;;;;;5033669;28;20192;-71
2021/12/18 09:18:12;;;;;;;21.45;10.18;;;9.30;99.90;;;;;;5032995;28;20576;-71
2021/12/18 09:20:44;;;;;;;18.80;11.98;;;9.40;99.90;;;;;;5032235;28;20557;-69
2021/12/18 09:23:13;;;;;;;18.17;12.07;;;9.40;99.90;;;;;;5033185;28;20279;-69
2021/12/18 09:25:40;;;;;;;22.42;11.88;;;9.30;99.90;;;;;;5032371;28;20201;-72
2021/12/18 09:28:08;;;;;;;26.65;14.32;;;9.30;99.90;;;;;;5028379;28;20293;-70
2021/12/18 09:30:36;;;;;;;23.52;12.23;;;9.40;99.90;;;;;;5031827;28;20297;-70
2021/12/18 09:33:03;;;;;;;21.90;12.15;;;9.40;99.90;;;;;;5032839;28;20303;-69
2021/12/18 09:35:30;;;;;;;21.17;12.93;;;9.40;99.90;;;;;;5032989;28;20235;-70
2021/12/18 09:37:57;;;;;;;18.60;12.35;;;9.50;99.90;;;;;;5032551;28;20623;-71
2021/12/18 09:40:24;;;;;;;19.27;12.48;;;9.50;99.90;;;;;;5031928;28;20768;-71
2021/12/18 09:42:51;;;;;;;18.75;11.80;;;9.60;99.90;;;;;;5032895;28;20562;-70
2021/12/18 09:45:22;;;;;;;22.52;13.02;;;9.60;99.90;;;;;;5033188;28;20208;-70
2021/12/18 09:47:49;;;;;;;14.82;10.40;;;9.60;99.90;;;;;;5037532;28;20279;-70
2021/12/18 09:50:18;;;;;;;12.00;8.60;;;9.70;99.90;;;;;;5032001;28;20228;-70
2021/12/18 09:52:47;;;;;;;19.65;9.60;;;9.70;99.90;;;;;;5032094;28;20251;-70
2021/12/18 09:55:15;;;;;;;10.57;7.47;;;9.70;99.90;;;;;;5032499;28;20656;-70
2021/12/18 09:57:42;;;;;;;8.93;6.78;;;9.80;99.90;;;;;;5023888;28;20666;-69
2021/12/18 10:00:13;;;;;;;15.88;8.60;;;9.70;99.90;;;;;;5031582;28;20238;-69
2021/12/18 10:02:42;;;;;;;6.95;5.00;;;9.80;99.90;;;;;;5032790;28;20287;-70
2021/12/18 10:05:20;;;;;;;5.03;3.30;;;9.90;99.90;;;;;;5032348;28;20196;-69
2021/12/18 10:08:09;;;;;;;6.70;2.75;;;9.90;99.90;;;;;;5032142;28;20205;-70
2021/12/18 10:10:37;;;;;;;4.30;2.90;;;10.10;99.90;;;;;;5030891;28;20235;-71
2021/12/18 10:13:05;;;;;;;2.40;1.90;;;10.30;99.90;;;;;;5031723;28;20291;-71
2021/12/18 10:15:33;;;;;;;3.25;1.98;;;10.40;99.90;;;;;;5032238;28;20286;-72
2021/12/18 10:18:10;;;;;;;2.20;2.00;;;10.50;99.90;;;;;;5032266;28;20293;-70
2021/12/18 10:20:38;;;;;;;3.08;1.67;;;10.60;99.90;;;;;;5031312;28;20739;-70
2021/12/18 10:23:06;;;;;;;4.28;2.47;;;10.50;99.90;;;;;;5032386;28;20222;-71
2021/12/18 10:25:38;;;;;;;5.63;2.00;;;10.40;99.90;;;;;;5032200;28;20293;-72
2021/12/18 10:28:11;;;;;;;3.15;2.63;;;10.40;99.90;;;;;;5032881;28;20193;-69
2021/12/18 10:30:44;;;;;;;3.58;3.03;;;10.30;99.90;;;;;;5032397;28;20221;-69
2021/12/18 10:33:13;;;;;;;3.58;2.53;;;10.20;99.90;;;;;;5030671;28;20671;-69
2021/12/18 10:35:45;;;;;;;4.85;3.38;;;10.10;99.90;;;;;;5032072;28;20204;-71
2021/12/18 10:38:37;;;;;;;3.42;3.13;;;10.10;99.90;;;;;;5026798;28;20216;-70
2021/12/18 10:41:21;;;;;;;7.53;4.15;;;10.10;99.90;;;;;;5026285;28;20611;-71
2021/12/18 10:44:00;;;;;;;5.25;3.30;;;10.10;99.90;;;;;;5031562;28;20228;-70
2021/12/18 10:46:28;;;;;;;6.35;4.85;;;10.10;99.90;;;;;;5029921;28;20568;-69
2021/12/18 10:48:59;;;;;;;7.63;4.50;;;10.10;99.90;;;;;;5031063;28;20201;-70
2021/12/18 10:51:29;;;;;;;4.95;4.25;;;10.10;99.90;;;;;;5031228;28;20249;-70
2021/12/18 10:54:05;;;;;;;6.18;5.15;;;10.10;99.90;;;;;;5031676;28;20229;-69
2021/12/18 10:56:37;;;;;;;8.27;5.15;;;10.10;99.90;;;;;;5031619;28;20212;-70
2021/12/18 10:59:07;;;;;;;5.38;3.47;;;10.00;99.90;;;;;;5031076;28;20299;-69
2021/12/18 11:01:37;;;;;;;5.70;3.55;;;10.00;99.90;;;;;;5029550;28;20224;-70
2021/12/18 11:04:06;;;;;;;3.55;2.60;;;10.00;99.90;;;;;;5031411;28;20195;-70
2021/12/18 11:06:33;;;;;;;6.35;3.55;;;9.90;99.90;;;;;;5031628;28;20215;-71
2021/12/18 11:09:09;;;;;;;8.48;3.00;;;9.90;99.90;;;;;;5026183;28;20219;-71
2021/12/18 11:14:33;;;;;;;10.02;5.05;;;10.00;99.90;;;;;;5002718;28;20235;-70
2021/12/18 11:17:03;;;;;;;8.60;4.70;;;10.00;99.90;;;;;;5030015;28;20196;-70
2021/12/18 11:19:33;;;;;;;5.78;3.83;;;10.00;99.90;;;;;;5034408;28;20427;-71
2021/12/18 11:22:03;;;;;;;7.97;3.50;;;10.00;99.90;;;;;;5034480;28;20220;-71
2021/12/18 11:24:34;;;;;;;8.68;3.42;;;10.10;99.90;;;;;;5029144;28;20280;-69
2021/12/18 11:27:04;;;;;;;6.82;3.72;;;10.20;99.90;;;;;;5031270;28;20192;-71
2021/12/18 11:29:39;;;;;;;8.25;3.80;;;10.20;99.90;;;;;;5031556;28;20622;-70
2021/12/18 11:32:08;;;;;;;11.73;4.53;;;10.30;99.90;;;;;;5030189;28;20228;-71
2021/12/18 11:34:38;;;;;;;10.02;3.75;;;10.30;99.90;;;;;;5034589;28;20256;-71
2021/12/18 11:37:06;;;;;;;5.78;3.38;;;10.40;99.90;;;;;;5034345;28;20209;-71
2021/12/18 11:39:35;;;;;;;9.63;4.70;;;10.50;99.90;;;;;;5029043;28;20205;-71
2021/12/18 11:42:02;;;;;;;17.77;4.22;;;10.50;99.90;;;;;;5034553;28;20224;-72
2021/12/18 11:44:36;;;;;;;7.75;3.58;;;10.60;99.90;;;;;;5032748;28;20206;-72
2021/12/18 11:47:27;;;;;;;6.63;3.20;;;10.70;99.90;;;;;;5034503;28;20256;-72
2021/12/18 11:49:59;;;;;;;9.70;3.25;;;10.70;99.90;;;;;;5032733;28;20208;-72
2021/12/18 11:52:26;;;;;;;11.18;4.50;;;10.80;99.90;;;;;;5034413;28;20561;-70
2021/12/18 11:54:55;;;;;;;6.65;3.60;;;10.80;99.90;;;;;;5034454;28;20759;-73
2021/12/18 11:57:42;;;;;;;12.32;4.53;;;10.90;99.90;;;;;;5034069;28;20211;-71
2021/12/18 12:00:30;;;;;;;10.70;3.78;;;10.90;99.90;;;;;;5033576;28;20219;-70
2021/12/18 12:02:58;;;;;;;6.97;3.78;;;10.90;99.90;;;;;;5034459;28;20216;-71
2021/12/18 12:05:36;;;;;;;9.52;5.97;;;11.00;99.90;;;;;;5034151;28;20290;-71
2021/12/18 12:08:26;;;;;;;8.68;3.72;;;11.00;99.90;;;;;;5034489;28;20234;-71
2021/12/18 12:11:24;;;;;;;14.35;4.93;;;11.00;99.90;;;;;;5023302;28;20245;-70
2021/12/18 12:14:02;;;;;;;9.65;4.28;;;11.10;99.90;;;;;;5011179;28;20229;-71
2021/12/18 12:17:06;;;;;;;7.90;4.93;;;11.10;99.90;;;;;;5033025;28;20263;-72
2021/12/18 12:20:01;;;;;;;25.50;6.55;;;11.10;99.90;;;;;;5032170;28;20213;-72
2021/12/18 12:22:53;;;;;;;22.52;7.07;;;10.90;99.90;;;;;;5032905;28;20245;-71
2021/12/18 12:25:42;;;;;;;12.43;4.85;;;10.90;99.90;;;;;;5030255;28;20255;-70
2021/12/18 12:28:10;;;;;;;20.50;5.63;;;11.00;99.90;;;;;;5033039;28;20231;-70
2021/12/18 12:30:43;;;;;;;19.02;5.53;;;11.00;99.90;;;;;;5033074;28;20240;-71
2021/12/18 12:33:26;;;;;;;13.13;4.50;;;11.00;99.90;;;;;;5033715;28;20194;-71
2021/12/18 12:36:11;;;;;;;11.20;4.68;;;11.00;99.90;;;;;;5027331;28;20230;-72
2021/12/18 12:38:43;;;;;;;10.07;4.18;;;11.00;99.90;;;;;;5028300;28;20571;-71
2021/12/18 12:41:29;;;;;;;10.70;4.35;;;11.00;99.90;;;;;;5032509;28;20237;-69
2021/12/18 12:44:00;;;;;;;8.75;4.13;;;11.00;99.90;;;;;;5033091;28;20199;-71
2021/12/18 12:46:27;;;;;;;10.05;4.75;;;11.10;99.90;;;;;;5033787;28;20549;-70
2021/12/18 12:49:09;;;;;;;12.07;4.85;;;11.10;99.90;;;;;;5033841;28;20198;-72
2021/12/18 12:52:09;;;;;;;15.15;5.13;;;11.10;99.90;;;;;;5032097;28;20313;-70
2021/12/18 12:54:50;;;;;;;10.98;4.05;;;11.00;99.90;;;;;;5030471;28;20933;-71
2021/12/18 12:57:36;;;;;;;12.90;4.45;;;11.00;99.90;;;;;;5031815;28;20213;-72
2021/12/18 13:00:42;;;;;;;9.73;4.68;;;11.10;99.90;;;;;;5032505;28;20351;-71
2021/12/18 13:03:22;;;;;;;10.77;4.25;;;11.10;99.90;;;;;;5030792;28;20228;-71
2021/12/18 13:06:09;;;;;;;15.73;5.40;;;11.10;99.90;;;;;;5026790;28;20210;-70
2021/12/18 13:08:40;;;;;;;13.75;5.28;;;11.20;99.90;;;;;;5032678;28;20305;-70
2021/12/18 13:11:14;;;;;;;13.80;5.53;;;11.20;99.90;;;;;;5027259;28;20309;-70
2021/12/18 13:13:41;;;;;;;16.38;5.70;;;11.20;99.90;;;;;;5031006;28;20207;-70
2021/12/18 13:16:11;;;;;;;15.38;6.18;;;11.20;99.90;;;;;;5028648;28;20226;-70
2021/12/18 13:18:41;;;;;;;15.90;6.38;;;11.20;99.90;;;;;;5032980;28;20203;-71
2021/12/18 13:21:11;;;;;;;12.38;5.65;;;11.20;99.90;;;;;;5031989;28;20653;-70
2021/12/18 13:23:50;;;;;;;12.30;5.80;;;11.10;99.90;;;;;;5032943;28;20233;-70
2021/12/18 13:26:27;;;;;;;12.75;5.13;;;11.10;99.90;;;;;;5032557;28;20231;-70
2021/12/18 13:28:57;;;;;;;14.57;5.43;;;11.10;99.90;;;;;;5031412;28;20625;-71
2021/12/18 13:31:27;;;;;;;10.68;5.00;;;11.10;99.90;;;;;;5031196;28;20717;-72
2021/12/18 13:34:04;;;;;;;13.88;6.18;;;11.00;99.90;;;;;;5028799;28;20293;-72